createdAt,value
2023-05-05T00:00:24.188Z,8.60
2023-05-05T00:05:50.961Z,8.49
2023-05-05T00:10:54.417Z,8.30
2023-05-05T00:15:58.043Z,8.13
2023-05-05T00:21:01.573Z,7.99
2023-05-05T00:26:04.538Z,7.93
2023-05-05T00:31:07.736Z,7.95
2023-05-05T00:36:11.102Z,7.93
2023-05-05T00:41:13.353Z,7.87
2023-05-05T00:46:28.053Z,7.75
2023-05-05T00:51:32.043Z,7.72
2023-05-05T00:56:34.888Z,7.62
2023-05-05T01:01:36.988Z,7.47
2023-05-05T01:07:22.668Z,7.35
2023-05-05T01:12:50.920Z,7.31
2023-05-05T01:18:12.022Z,7.33
2023-05-05T01:23:37.786Z,7.33
2023-05-05T01:29:17.560Z,7.29
2023-05-05T01:34:45.693Z,7.24
2023-05-05T01:39:54.667Z,7.24
2023-05-05T01:44:58.610Z,7.18
2023-05-05T01:50:04.153Z,7.14
2023-05-05T01:55:09.493Z,7.02
2023-05-05T02:00:16.887Z,6.93
2023-05-05T02:05:22.952Z,6.91
2023-05-05T02:10:26.624Z,6.81
2023-05-05T02:15:30.498Z,6.74
2023-05-05T02:20:33.870Z,6.75
2023-05-05T02:25:44.208Z,6.67
2023-05-05T02:30:54.889Z,6.58
2023-05-05T02:35:59.620Z,6.49
2023-05-05T02:41:04.788Z,6.41
2023-05-05T02:46:09.655Z,6.29
2023-05-05T02:51:13.357Z,6.23
2023-05-05T02:56:43.864Z,6.27
2023-05-05T03:01:59.656Z,6.28
2023-05-05T03:07:12.118Z,6.30
2023-05-05T03:12:22.832Z,6.29
2023-05-05T03:17:27.498Z,6.27
2023-05-05T03:22:30.677Z,6.24
2023-05-05T03:27:33.880Z,6.26
2023-05-05T03:32:37.245Z,6.34
2023-05-05T03:37:40.893Z,6.47
2023-05-05T03:42:44.980Z,6.63
2023-05-05T03:47:48.129Z,6.71
2023-05-05T03:52:51.287Z,6.73
2023-05-05T03:57:54.862Z,6.81
2023-05-05T04:02:58.300Z,6.87
2023-05-05T04:08:01.660Z,6.95
2023-05-05T04:13:04.585Z,7.12
2023-05-05T04:18:07.528Z,7.30
2023-05-05T04:23:10.460Z,7.43
2023-05-05T04:28:12.571Z,7.52
2023-05-05T04:33:14.443Z,7.63
2023-05-05T04:38:19.752Z,7.81
2023-05-05T04:43:22.882Z,8.08
2023-05-05T04:48:24.605Z,8.43
2023-05-05T04:53:27.175Z,8.81
2023-05-05T04:58:30.993Z,9.17
2023-05-05T05:03:34.169Z,9.53
2023-05-05T05:08:37.146Z,9.93
2023-05-05T05:13:40.408Z,10.40
2023-05-05T05:18:43.213Z,10.77
2023-05-05T05:23:46.458Z,10.88
2023-05-05T05:28:49.310Z,10.92
2023-05-05T05:33:53.001Z,10.99
2023-05-05T05:38:56.690Z,11.09
2023-05-05T05:44:00.264Z,11.24
2023-05-05T05:49:03.757Z,11.46
2023-05-05T05:54:07.717Z,11.73
2023-05-05T05:59:10.367Z,12.04
2023-05-05T06:04:13.098Z,12.31
2023-05-05T06:09:16.096Z,12.57
2023-05-05T06:14:20.093Z,12.89
2023-05-05T06:19:23.197Z,13.30
2023-05-05T06:24:26.542Z,13.79
2023-05-05T06:29:30.040Z,14.29
2023-05-05T06:34:33.058Z,14.82
2023-05-05T06:39:36.137Z,15.34
2023-05-05T06:44:40.015Z,15.72
2023-05-05T06:49:43.390Z,16.14
2023-05-05T06:54:47.177Z,16.55
2023-05-05T06:59:49.728Z,17.16
2023-05-05T07:04:51.680Z,18.01
2023-05-05T07:09:55.302Z,18.66
2023-05-05T07:14:57.812Z,19.03
2023-05-05T07:20:01.046Z,19.40
2023-05-05T07:25:04.484Z,19.59
2023-05-05T07:30:12.279Z,19.79
2023-05-05T07:35:17.175Z,19.72
2023-05-05T07:40:20.515Z,19.39
2023-05-05T07:45:22.765Z,18.99
2023-05-05T07:50:26.894Z,18.99
2023-05-05T07:55:30.683Z,19.11
2023-05-05T08:00:37.214Z,19.22
2023-05-05T08:05:41.384Z,19.22
2023-05-05T08:10:45.451Z,19.26
2023-05-05T08:15:47.950Z,19.50
2023-05-05T08:20:50.569Z,19.70
2023-05-05T08:25:54.504Z,20.04
2023-05-05T08:30:58.937Z,20.17
2023-05-05T08:36:02.628Z,20.29
2023-05-05T08:41:10.339Z,20.12
2023-05-05T08:46:13.792Z,20.11
2023-05-05T08:51:20.508Z,20.28
2023-05-05T08:56:28.348Z,20.18
2023-05-05T09:01:34.434Z,19.90
2023-05-05T09:06:38.185Z,19.78
2023-05-05T09:11:41.653Z,19.79
2023-05-05T09:16:45.354Z,19.83
2023-05-05T09:21:52.293Z,20.02
2023-05-05T09:26:59.015Z,20.38
2023-05-05T09:32:09.201Z,20.63
2023-05-05T09:37:26.429Z,20.80
2023-05-05T09:42:30.104Z,20.45
2023-05-05T09:47:37.937Z,20.34
2023-05-05T09:52:41.268Z,20.66
2023-05-05T09:57:44.104Z,21.02
2023-05-05T10:02:47.893Z,21.29
2023-05-05T10:07:50.611Z,21.54
2023-05-05T10:12:54.823Z,21.66
2023-05-05T10:18:07.475Z,21.58
2023-05-05T10:23:15.845Z,21.98
2023-05-05T10:28:28.529Z,22.12
2023-05-05T10:33:40.283Z,22.16
2023-05-05T10:38:44.023Z,22.38
2023-05-05T10:43:47.824Z,22.77
2023-05-05T10:49:04.020Z,22.90
2023-05-05T10:54:39.083Z,22.98
2023-05-05T10:59:43.165Z,22.87
2023-05-05T11:05:04.239Z,22.38
2023-05-05T11:10:15.181Z,21.68
2023-05-05T11:15:30.656Z,21.26
2023-05-05T11:20:40.753Z,21.06
2023-05-05T11:25:45.008Z,20.95
2023-05-05T11:30:58.816Z,21.11
2023-05-05T11:36:06.065Z,21.28
2023-05-05T11:41:33.688Z,20.99
2023-05-05T11:46:40.118Z,20.62
2023-05-05T11:51:44.273Z,20.49
2023-05-05T11:56:50.856Z,20.45
2023-05-05T12:01:54.434Z,20.40
2023-05-05T12:07:00.181Z,20.32
2023-05-05T12:12:03.071Z,20.28
2023-05-05T12:17:09.767Z,20.61
2023-05-05T12:22:19.636Z,20.99
2023-05-05T12:27:23.128Z,21.16
2023-05-05T12:32:28.285Z,20.92
2023-05-05T12:37:32.737Z,20.46
2023-05-05T12:42:40.389Z,20.47
2023-05-05T12:47:44.929Z,20.83
2023-05-05T12:52:48.502Z,20.68
2023-05-05T12:58:04.828Z,20.37
2023-05-05T13:03:18.599Z,20.20
2023-05-05T13:08:22.837Z,20.00
2023-05-05T13:13:26.470Z,19.90
2023-05-05T13:18:29.985Z,19.58
2023-05-05T13:23:33.654Z,19.43
2023-05-05T13:28:36.667Z,19.41
2023-05-05T13:33:40.187Z,19.35
2023-05-05T13:38:44.018Z,19.06
2023-05-05T13:43:47.857Z,18.86
2023-05-05T13:48:54.679Z,18.85
2023-05-05T13:54:00.669Z,18.85
2023-05-05T13:59:04.691Z,18.54
2023-05-05T14:04:08.470Z,18.24
2023-05-05T14:09:12.326Z,18.04
2023-05-05T14:14:19.281Z,17.94
2023-05-05T14:19:23.315Z,17.84
2023-05-05T14:24:26.658Z,17.68
2023-05-05T14:29:29.581Z,17.62
2023-05-05T14:34:32.208Z,17.66
2023-05-05T14:39:35.435Z,17.72
2023-05-05T14:44:38.493Z,17.77
2023-05-05T14:49:41.546Z,17.86
2023-05-05T14:54:44.887Z,17.87
2023-05-05T14:59:52.721Z,17.83
2023-05-05T15:04:54.885Z,17.65
2023-05-05T15:09:57.700Z,17.56
2023-05-05T15:15:00.981Z,17.61
2023-05-05T15:20:04.917Z,17.60
2023-05-05T15:25:11.908Z,17.52
2023-05-05T15:30:17.884Z,17.40
2023-05-05T15:35:25.551Z,17.19
2023-05-05T15:40:28.505Z,16.90
2023-05-05T15:45:31.516Z,16.68
2023-05-05T15:50:35.696Z,16.50
2023-05-05T15:55:40.209Z,16.30
2023-05-05T16:00:48.346Z,16.09
2023-05-05T16:05:53.305Z,16.00
2023-05-05T16:10:57.026Z,15.95
2023-05-05T16:16:01.902Z,15.79
2023-05-05T16:21:07.138Z,15.63
2023-05-05T16:26:15.084Z,15.43
2023-05-05T16:31:18.735Z,15.26
2023-05-05T16:36:22.870Z,15.17
2023-05-05T16:41:26.597Z,15.09
2023-05-05T16:46:30.448Z,15.01
2023-05-05T16:51:34.270Z,14.88
2023-05-05T16:56:37.435Z,14.78
2023-05-05T17:01:40.666Z,14.71
2023-05-05T17:06:46.164Z,14.64
2023-05-05T17:11:52.086Z,14.52
2023-05-05T17:16:56.076Z,14.40
2023-05-05T17:22:00.888Z,14.28
2023-05-05T17:27:06.657Z,14.13
2023-05-05T17:32:09.402Z,13.98
2023-05-05T17:37:12.766Z,13.84
2023-05-05T17:42:19.554Z,13.70
2023-05-05T17:47:24.744Z,13.57
2023-05-05T17:52:28.396Z,13.43
2023-05-05T17:57:34.765Z,13.29
2023-05-05T18:02:40.745Z,13.15
2023-05-05T18:07:43.737Z,13.01
2023-05-05T18:12:53.358Z,12.88
2023-05-05T18:17:58.354Z,12.75
2023-05-05T18:23:01.629Z,12.66
2023-05-05T18:28:05.602Z,12.59
2023-05-05T18:33:08.539Z,12.52
2023-05-05T18:38:12.133Z,12.44
2023-05-05T18:43:17.045Z,12.38
2023-05-05T18:48:20.093Z,12.32
2023-05-05T18:53:24.689Z,12.24
2023-05-05T18:58:27.450Z,12.16
2023-05-05T19:03:31.421Z,12.10
2023-05-05T19:08:34.176Z,12.05
2023-05-05T19:18:41.765Z,11.94
2023-05-05T19:23:45.246Z,11.85
2023-05-05T19:28:48.232Z,11.76
2023-05-05T19:33:51.163Z,11.65
2023-05-05T19:38:55.469Z,11.54
2023-05-05T19:43:58.857Z,11.44
2023-05-05T19:49:01.531Z,11.34
2023-05-05T19:54:04.697Z,11.25
2023-05-05T19:59:06.897Z,11.16
2023-05-05T20:04:09.220Z,11.07
2023-05-05T20:09:11.895Z,10.97
2023-05-05T20:14:14.179Z,10.89
2023-05-05T20:19:16.710Z,10.81
2023-05-05T20:24:19.306Z,10.70
2023-05-05T20:29:25.992Z,10.62
2023-05-05T20:34:30.406Z,10.55
2023-05-05T20:39:38.512Z,10.47
2023-05-05T20:44:41.966Z,10.41
2023-05-05T20:49:44.636Z,10.36
2023-05-05T20:54:48.024Z,10.31
2023-05-05T20:59:50.927Z,10.28
2023-05-05T21:04:53.348Z,10.24
2023-05-05T21:09:56.661Z,10.18
2023-05-05T21:14:59.404Z,10.10
2023-05-05T21:20:03.724Z,10.02
2023-05-05T21:25:15.765Z,9.96
2023-05-05T21:30:18.271Z,9.89
2023-05-05T21:35:21.347Z,9.80
2023-05-05T21:40:24.316Z,9.73
2023-05-05T21:45:27.886Z,9.67
2023-05-05T21:50:29.866Z,9.58
2023-05-05T21:55:32.008Z,9.52
2023-05-05T22:00:35.160Z,9.46
2023-05-05T22:05:39.782Z,9.40
2023-05-05T22:10:45.663Z,9.35
2023-05-05T22:15:50.433Z,9.29
2023-05-05T22:20:55.119Z,9.26
2023-05-05T22:25:58.487Z,9.22
2023-05-05T22:31:02.790Z,9.17
2023-05-05T22:36:09.214Z,9.13
2023-05-05T22:41:14.043Z,9.08
2023-05-05T22:46:17.151Z,9.04
2023-05-05T22:51:21.472Z,9.01
2023-05-05T22:56:26.732Z,8.99
2023-05-05T23:01:30.591Z,8.95
2023-05-05T23:06:34.620Z,8.91
2023-05-05T23:11:38.641Z,8.88
2023-05-05T23:16:42.286Z,8.82
2023-05-05T23:21:53.349Z,8.75
2023-05-05T23:27:05.093Z,8.68
2023-05-05T23:32:09.240Z,8.63
2023-05-05T23:37:14.173Z,8.60
2023-05-05T23:42:18.523Z,8.58
2023-05-05T23:47:21.756Z,8.55
2023-05-05T23:52:24.360Z,8.52
2023-05-05T23:57:26.486Z,8.52
